This is the latest recevied weather packets stored in our database for station/object KK7RJD. If no packets are shown the sender has not sent any weather packets the latest 10 day(s).
| Time | Temp. | Humidity | Pressure | Rain* | Wind** | Luminosity | Snow |
|---|---|---|---|---|---|---|---|
| 1778023159 | 6.67° C | 39% | 1015.4 hPa | 0 mm | - | 175 W/m² | - |
| 1778022856 | 6.67° C | 39% | 1015.3 hPa | 0 mm | - | 73 W/m² | - |
| 1778022554 | 6.67° C | 39% | 1015.1 hPa | 0 mm | - | 78 W/m² | - |
| 1778022252 | 6.67° C | 39% | 1015.4 hPa | 0 mm | - | 99 W/m² | - |
| 1778021948 | 6.67° C | 38% | 1015.2 hPa | 0 mm | - | 109 W/m² | - |
| 1778021645 | 7.22° C | 38% | 1015.1 hPa | 0 mm | - | 161 W/m² | - |
| 1778021340 | 7.22° C | 39% | 1015.1 hPa | 0 mm | - | 167 W/m² | - |
| 1778021038 | 6.67° C | 41% | 1015.1 hPa | 0 mm | - | 227 W/m² | - |
| 1778020735 | 6.67° C | 42% | 1015.1 hPa | 0 mm | - | 311 W/m² | - |
| 1778020432 | 6.67° C | 45% | 1015.2 hPa | 0 mm | - | 246 W/m² | - |
| 1778020128 | 6.11° C | 47% | 1015.1 hPa | 0 mm | - | 188 W/m² | - |
| 1778019824 | 6.11° C | 47% | 1015.3 hPa | 0 mm | - | 176 W/m² | - |
| 1778019521 | 6.67° C | 48% | 1015.4 hPa | 0 mm | - | 234 W/m² | - |
| 1778019218 | 7.22° C | 45% | 1015.1 hPa | 0 mm | - | 195 W/m² | - |
| 1778018915 | 7.78° C | 42% | 1015 hPa | 0 mm | - | 355 W/m² | - |
| 1778018612 | 7.22° C | 42% | 1014.8 hPa | 0 mm | - | 460 W/m² | - |
| 1778018310 | 7.22° C | 43% | 1014.8 hPa | 0 mm | - | 219 W/m² | - |
| 1778018008 | 7.78° C | 41% | 1014.8 hPa | 0 mm | - | 296 W/m² | - |
| 1778017706 | 7.78° C | 39% | 1014.5 hPa | 0 mm | - | 401 W/m² | - |
| 1778017403 | 8.89° C | 35% | 1014.5 hPa | 0 mm | - | 266 W/m² | - |
| 1778017099 | 8.33° C | 35% | 1014.5 hPa | 0 mm | - | 795 W/m² | - |
| 1778016798 | 7.78° C | 37% | 1014.4 hPa | 0 mm | - | 818 W/m² | - |
| 1778016493 | 7.22° C | 40% | 1014.5 hPa | 0 mm | - | 566 W/m² | - |
| 1778016190 | 7.78° C | 42% | 1014.6 hPa | 0 mm | - | 216 W/m² | - |
| 1778015886 | 7.78° C | 38% | 1014.5 hPa | 0 mm | - | 265 W/m² | - |
* Rain latest hour (hover to see other rain measurements)
** Current wind speed in m/s (hover to see current wind gust speed)